Time;durP1;ratioP1;P1;durP2;ratioP2;P2;SDS_P1;SDS_P2;PMS_P1;PMS_P2;Temp;Humidity;BMP_temperature;BMP_pressure;BME280_temperature;BME280_humidity;BME280_pressure;Samples;Min_cycle;Max_cycle;Signal;HPM_P1;HPM_P2
2022/06/24 00:01:16;;;;;;;;;;;21.40;96.90;;;;;;5067210;28;19924;-64
2022/06/24 00:03:45;;;;;;;;;;;21.40;97.00;;;;;;5066971;28;20391;-64
2022/06/24 00:06:11;;;;;;;;;;;21.30;97.20;;;;;;5065773;28;19920;-64
2022/06/24 00:08:46;;;;;;;;;;;21.20;97.50;;;;;;5069400;28;19931;-64
2022/06/24 00:11:11;;;;;;;;;;;21.20;97.80;;;;;;5068965;28;19924;-63
2022/06/24 00:13:38;;;;;;;;;;;21.10;97.90;;;;;;5068324;28;19943;-64
2022/06/24 00:16:04;;;;;;;;;;;21.00;98.20;;;;;;5067758;28;19987;-64
2022/06/24 00:18:30;;;;;;;;;;;21.00;98.20;;;;;;5067928;28;19916;-65
2022/06/24 00:20:56;;;;;;;;;;;20.90;98.10;;;;;;5068697;28;19917;-63
2022/06/24 00:23:22;;;;;;;;;;;20.80;98.30;;;;;;5068842;28;20381;-64
2022/06/24 00:25:47;;;;;;;;;;;20.70;98.50;;;;;;5069493;28;19976;-64
2022/06/24 00:28:13;;;;;;;;;;;20.60;98.90;;;;;;5068666;28;20386;-64
2022/06/24 00:30:39;;;;;;;;;;;20.50;99.20;;;;;;5068520;28;19930;-64
2022/06/24 00:33:14;;;;;;;;;;;20.40;99.40;;;;;;5068500;28;19916;-64
2022/06/24 00:35:41;;;;;;;;;;;20.40;99.70;;;;;;5069591;28;19916;-63
2022/06/24 00:38:26;;;;;;;;;;;20.30;99.70;;;;;;5066321;28;19943;-64
2022/06/24 00:41:00;;;;;;;;;;;20.30;99.90;;;;;;5066434;28;20286;-63
2022/06/24 00:43:27;;;;;;;;;;;20.20;99.90;;;;;;5067275;28;20357;-63
2022/06/24 00:45:58;;;;;;;;;;;20.20;99.90;;;;;;5068928;28;19916;-63
2022/06/24 00:48:27;;;;;;;;;;;20.20;99.90;;;;;;5069368;28;20232;-64
2022/06/24 00:50:52;;;;;;;;;;;20.10;99.90;;;;;;5070547;28;20329;-64
2022/06/24 00:53:18;;;;;;;;;;;20.10;99.90;;;;;;5070816;28;20011;-64
2022/06/24 00:55:45;;;;;;;;;;;20.10;99.90;;;;;;5070521;28;19916;-63
2022/06/24 00:58:14;;;;;;;;;;;20.10;99.90;;;;;;5070426;28;20276;-64
2022/06/24 01:00:41;;;;;;;;;;;20.10;99.90;;;;;;5069243;28;19924;-64
2022/06/24 01:03:07;;;;;;;;;;;20.10;99.90;;;;;;5069032;28;19926;-64
2022/06/24 01:05:33;;;;;;;;;;;20.10;99.90;;;;;;5071934;28;20371;-64
2022/06/24 01:08:00;;;;;;;;;;;20.10;99.90;;;;;;5071183;28;19928;-64
2022/06/24 01:10:26;;;;;;;;;;;20.10;99.90;;;;;;5070164;28;19974;-64
2022/06/24 01:12:51;;;;;;;;;;;20.10;99.90;;;;;;5071061;28;19916;-63
2022/06/24 01:15:17;;;;;;;;;;;20.10;99.90;;;;;;5071870;28;19939;-63
2022/06/24 01:17:43;;;;;;;;;;;20.10;99.90;;;;;;5072345;28;20367;-63
2022/06/24 01:20:09;;;;;;;;;;;20.00;99.90;;;;;;5072469;28;19916;-64
2022/06/24 01:22:35;;;;;;;;;;;20.00;99.90;;;;;;5072278;28;20299;-63
2022/06/24 01:25:00;;;;;;;;;;;20.00;99.90;;;;;;5070194;28;19923;-65
2022/06/24 01:27:26;;;;;;;;;;;20.00;99.90;;;;;;5071194;28;19966;-64
2022/06/24 01:29:52;;;;;;;;;;;19.90;99.90;;;;;;5070542;28;20354;-63
2022/06/24 01:32:17;;;;;;;;;;;19.90;99.90;;;;;;5072105;28;20029;-64
2022/06/24 01:34:43;;;;;;;;;;;19.90;99.90;;;;;;5070964;28;19920;-63
2022/06/24 01:37:08;;;;;;;;;;;19.80;99.90;;;;;;5070832;28;19997;-64
2022/06/24 01:39:34;;;;;;;;;;;19.80;99.90;;;;;;5069992;28;19920;-65
2022/06/24 01:41:59;;;;;;;;;;;19.80;99.90;;;;;;5070978;28;20485;-64
2022/06/24 01:44:26;;;;;;;;;;;19.80;99.90;;;;;;5070477;28;19943;-64
2022/06/24 01:46:52;;;;;;;;;;;19.80;99.90;;;;;;5069712;28;20355;-64
2022/06/24 01:49:19;;;;;;;;;;;19.80;99.90;;;;;;5071140;28;19924;-64
2022/06/24 01:51:47;;;;;;;;;;;19.70;99.90;;;;;;5072079;28;19924;-63
2022/06/24 01:54:12;;;;;;;;;;;19.70;99.90;;;;;;5053278;28;19927;-64
2022/06/24 01:56:38;;;;;;;;;;;19.70;99.90;;;;;;5071054;28;19924;-65
2022/06/24 01:59:04;;;;;;;;;;;19.70;99.90;;;;;;5070699;28;19927;-64
2022/06/24 02:01:29;;;;;;;;;;;19.70;99.90;;;;;;5070147;28;20302;-63
2022/06/24 02:03:55;;;;;;;;;;;19.70;99.90;;;;;;5069009;28;20272;-64
2022/06/24 02:06:20;;;;;;;;;;;19.70;99.90;;;;;;5070637;28;19916;-65
2022/06/24 02:08:46;;;;;;;;;;;19.60;99.90;;;;;;5071828;28;19998;-64
2022/06/24 02:13:57;;;;;;;;;;;19.60;99.90;;;;;;5070753;28;19916;-64
2022/06/24 02:16:23;;;;;;;;;;;19.60;99.90;;;;;;5068728;28;19920;-64
2022/06/24 02:18:49;;;;;;;;;;;19.50;99.90;;;;;;5069631;28;19923;-63
2022/06/24 02:21:15;;;;;;;;;;;19.50;99.90;;;;;;5069879;28;19920;-63
2022/06/24 02:23:43;;;;;;;;;;;19.50;99.90;;;;;;5071432;28;20405;-64
2022/06/24 02:26:09;;;;;;;;;;;19.50;99.90;;;;;;5069706;28;20258;-64
2022/06/24 02:28:35;;;;;;;;;;;19.40;99.90;;;;;;5067638;28;19995;-64
2022/06/24 02:31:01;;;;;;;;;;;19.40;99.90;;;;;;5066497;28;20309;-64
2022/06/24 02:33:26;;;;;;;;;;;19.40;99.90;;;;;;5068366;28;20279;-64
2022/06/24 02:35:52;;;;;;;;;;;19.30;99.90;;;;;;5069164;28;20348;-64
2022/06/24 02:38:18;;;;;;;;;;;19.30;99.90;;;;;;5069617;28;19982;-63
2022/06/24 02:40:47;;;;;;;;;;;19.30;99.90;;;;;;5069500;28;20003;-65
2022/06/24 02:43:29;;;;;;;;;;;19.30;99.90;;;;;;5067604;28;19924;-64
2022/06/24 02:45:57;;;;;;;;;;;19.30;99.90;;;;;;5068643;28;19999;-63
2022/06/24 02:48:23;;;;;;;;;;;19.30;99.90;;;;;;5066463;28;19920;-65
2022/06/24 02:50:49;;;;;;;;;;;19.30;99.90;;;;;;5068684;28;19934;-65
2022/06/24 02:53:15;;;;;;;;;;;19.30;99.90;;;;;;5070342;28;19924;-63
2022/06/24 02:55:41;;;;;;;;;;;19.30;99.90;;;;;;5069081;28;20184;-63
2022/06/24 02:58:07;;;;;;;;;;;19.30;99.90;;;;;;5068190;28;20329;-63
2022/06/24 03:00:33;;;;;;;;;;;19.30;99.90;;;;;;5064372;28;19920;-63
2022/06/24 03:02:59;;;;;;;;;;;19.30;99.90;;;;;;5069023;28;19920;-64
2022/06/24 03:05:25;;;;;;;;;;;19.40;99.90;;;;;;5066737;28;20019;-64
2022/06/24 03:07:51;;;;;;;;;;;19.40;99.90;;;;;;5068468;28;19995;-63
2022/06/24 03:10:17;;;;;;;;;;;19.50;99.90;;;;;;5068660;28;19920;-64
2022/06/24 03:12:43;;;;;;;;;;;19.40;99.90;;;;;;5069799;28;20322;-64
2022/06/24 03:15:09;;;;;;;;;;;19.40;99.90;;;;;;5069236;28;19928;-64
2022/06/24 03:17:35;;;;;;;;;;;19.30;99.90;;;;;;5068949;28;19920;-63
2022/06/24 03:20:00;;;;;;;;;;;19.30;99.90;;;;;;5068971;28;19920;-63
2022/06/24 03:22:26;;;;;;;;;;;19.30;99.90;;;;;;5069491;28;19921;-63
2022/06/24 03:24:54;;;;;;;;;;;19.30;99.90;;;;;;5070229;28;19920;-64
2022/06/24 03:27:20;;;;;;;;;;;19.40;99.90;;;;;;5069340;28;19924;-64
2022/06/24 03:29:46;;;;;;;;;;;19.40;99.90;;;;;;5068356;28;20426;-64
2022/06/24 03:32:11;;;;;;;;;;;19.40;99.90;;;;;;5068401;28;20395;-64
2022/06/24 03:34:37;;;;;;;;;;;19.40;99.90;;;;;;5068553;28;19917;-64
2022/06/24 03:37:03;;;;;;;;;;;19.40;99.90;;;;;;5068840;28;19921;-64
2022/06/24 03:39:28;;;;;;;;;;;19.50;99.90;;;;;;5068111;28;19928;-63
2022/06/24 03:41:54;;;;;;;;;;;19.50;99.90;;;;;;5068098;28;19927;-63
2022/06/24 03:44:19;;;;;;;;;;;19.60;99.90;;;;;;5067570;28;20003;-63
2022/06/24 03:46:45;;;;;;;;;;;19.70;99.90;;;;;;5066190;28;20297;-64
2022/06/24 03:49:10;;;;;;;;;;;19.70;99.90;;;;;;5066945;28;19916;-64
2022/06/24 03:51:36;;;;;;;;;;;19.80;99.90;;;;;;5066312;28;20428;-63
2022/06/24 03:54:01;;;;;;;;;;;19.80;99.90;;;;;;5068913;28;19924;-65
2022/06/24 03:56:27;;;;;;;;;;;19.90;99.90;;;;;;5068689;28;19916;-64
2022/06/24 03:58:53;;;;;;;;;;;20.00;99.90;;;;;;5064794;28;19923;-64
2022/06/24 04:01:18;;;;;;;;;;;20.10;99.90;;;;;;5065678;28;19925;-64
2022/06/24 04:03:44;;;;;;;;;;;20.00;99.90;;;;;;5067894;28;19924;-64
2022/06/24 04:06:09;;;;;;;;;;;20.00;99.90;;;;;;5067587;28;20324;-64
2022/06/24 04:08:35;;;;;;;;;;;20.00;99.90;;;;;;5067583;28;19920;-63
2022/06/24 04:11:10;;;;;;;;;;;19.90;99.90;;;;;;5064540;28;19916;-64
2022/06/24 04:13:36;;;;;;;;;;;20.00;99.90;;;;;;5065459;28;19978;-64
2022/06/24 04:16:02;;;;;;;;;;;19.90;99.90;;;;;;5068676;28;19924;-64
2022/06/24 04:18:27;;;;;;;;;;;19.90;99.90;;;;;;5068632;28;19927;-64
2022/06/24 04:20:53;;;;;;;;;;;19.80;99.90;;;;;;5065201;28;20274;-64
2022/06/24 04:23:18;;;;;;;;;;;19.80;99.90;;;;;;5066259;28;19927;-64
2022/06/24 04:25:46;;;;;;;;;;;19.80;99.90;;;;;;5070102;28;20367;-64
2022/06/24 04:28:11;;;;;;;;;;;19.70;99.90;;;;;;5072169;28;19946;-64
2022/06/24 04:30:37;;;;;;;;;;;19.70;99.90;;;;;;5071770;28;19919;-64
2022/06/24 04:33:02;;;;;;;;;;;19.70;99.90;;;;;;5071069;28;19932;-64
2022/06/24 04:35:28;;;;;;;;;;;19.70;99.90;;;;;;5072830;28;20007;-64
2022/06/24 04:37:53;;;;;;;;;;;19.70;99.90;;;;;;5071509;28;19916;-64
2022/06/24 04:40:19;;;;;;;;;;;19.70;99.90;;;;;;5070676;28;20331;-64
2022/06/24 04:42:45;;;;;;;;;;;19.70;99.90;;;;;;5071309;28;19993;-65
2022/06/24 04:45:10;;;;;;;;;;;19.80;99.90;;;;;;5071415;28;19920;-64
2022/06/24 04:47:36;;;;;;;;;;;19.80;99.90;;;;;;5069615;28;19999;-64
2022/06/24 04:50:02;;;;;;;;;;;19.80;99.90;;;;;;5069183;28;19920;-63
2022/06/24 04:52:28;;;;;;;;;;;19.90;99.90;;;;;;5072604;28;19961;-64
2022/06/24 04:54:53;;;;;;;;;;;19.90;99.90;;;;;;5071143;28;20003;-63
2022/06/24 04:57:19;;;;;;;;;;;19.90;99.90;;;;;;5070200;28;20003;-66
2022/06/24 04:59:44;;;;;;;;;;;19.80;99.90;;;;;;5070405;28;19999;-64
2022/06/24 05:02:10;;;;;;;;;;;19.90;99.90;;;;;;5071611;28;20275;-64
2022/06/24 05:04:35;;;;;;;;;;;19.90;99.90;;;;;;5072762;28;20418;-65
2022/06/24 05:07:02;;;;;;;;;;;19.90;99.90;;;;;;5070432;28;19971;-64
2022/06/24 05:09:27;;;;;;;;;;;19.90;99.90;;;;;;5071373;28;19963;-64
2022/06/24 05:11:53;;;;;;;;;;;19.90;99.90;;;;;;5071898;28;19970;-64
2022/06/24 05:14:19;;;;;;;;;;;19.90;99.90;;;;;;5069866;28;19923;-65
2022/06/24 05:16:44;;;;;;;;;;;19.90;99.90;;;;;;5070020;28;19917;-63
2022/06/24 05:19:10;;;;;;;;;;;19.90;99.90;;;;;;5071334;28;19920;-65
2022/06/24 05:21:35;;;;;;;;;;;19.90;99.90;;;;;;5071204;28;19967;-64
2022/06/24 05:24:01;;;;;;;;;;;20.00;99.90;;;;;;5070784;28;19935;-64
2022/06/24 05:26:27;;;;;;;;;;;20.00;99.90;;;;;;5070921;28;20299;-64
2022/06/24 05:28:52;;;;;;;;;;;20.00;99.90;;;;;;5070073;28;19939;-64
2022/06/24 05:31:18;;;;;;;;;;;20.00;99.90;;;;;;5069960;28;19920;-64
2022/06/24 05:33:44;;;;;;;;;;;20.00;99.90;;;;;;5069962;28;19924;-64
2022/06/24 05:36:09;;;;;;;;;;;20.00;99.90;;;;;;5071556;28;19920;-63
2022/06/24 05:38:35;;;;;;;;;;;20.00;99.90;;;;;;5070880;28;21589;-64
2022/06/24 05:41:02;;;;;;;;;;;20.10;99.90;;;;;;5071757;28;20359;-65
2022/06/24 05:43:27;;;;;;;;;;;20.10;99.90;;;;;;5070491;28;19951;-64
2022/06/24 05:45:53;;;;;;;;;;;20.10;99.90;;;;;;5069854;28;19916;-64
2022/06/24 05:48:18;;;;;;;;;;;20.10;99.90;;;;;;5072550;28;20006;-64
2022/06/24 05:50:44;;;;;;;;;;;20.10;99.90;;;;;;5071326;28;20433;-63
2022/06/24 05:55:58;;;;;;;;;;;20.10;99.90;;;;;;5071201;28;19928;-64
2022/06/24 05:58:25;;;;;;;;;;;20.20;99.90;;;;;;5071272;28;20416;-64
2022/06/24 06:00:51;;;;;;;;;;;20.10;99.90;;;;;;5071330;28;20432;-64
2022/06/24 06:03:17;;;;;;;;;;;20.20;99.90;;;;;;5071247;28;20733;-64
2022/06/24 06:05:42;;;;;;;;;;;20.20;99.90;;;;;;5070852;28;19916;-65
2022/06/24 06:08:08;;;;;;;;;;;20.10;99.90;;;;;;5070188;28;19920;-65
2022/06/24 06:10:37;;;;;;;;;;;20.10;99.90;;;;;;5070469;28;20381;-63
2022/06/24 06:13:03;;;;;;;;;;;20.10;99.90;;;;;;5065964;28;19916;-64
2022/06/24 06:15:29;;;;;;;;;;;20.10;99.90;;;;;;5071683;28;19926;-64
2022/06/24 06:17:55;;;;;;;;;;;20.10;99.90;;;;;;5070463;28;20347;-66
2022/06/24 06:20:20;;;;;;;;;;;20.10;99.90;;;;;;5069589;28;19941;-64
2022/06/24 06:22:46;;;;;;;;;;;20.10;99.90;;;;;;5071504;28;19926;-65
2022/06/24 06:25:14;;;;;;;;;;;20.10;99.90;;;;;;5069426;28;19920;-64
2022/06/24 06:27:40;;;;;;;;;;;20.10;99.90;;;;;;5068924;28;20298;-64
2022/06/24 06:30:06;;;;;;;;;;;20.10;99.90;;;;;;5067837;28;19916;-64
2022/06/24 06:32:31;;;;;;;;;;;20.00;99.90;;;;;;5069691;28;19924;-64
2022/06/24 06:34:57;;;;;;;;;;;20.00;99.90;;;;;;5070828;28;19967;-63
2022/06/24 06:37:22;;;;;;;;;;;20.10;99.90;;;;;;5071003;28;19923;-64
2022/06/24 06:39:48;;;;;;;;;;;20.10;99.90;;;;;;5071389;28;19931;-64
2022/06/24 06:42:14;;;;;;;;;;;20.10;99.90;;;;;;5070856;28;19931;-65
2022/06/24 06:44:39;;;;;;;;;;;20.10;99.90;;;;;;5071383;28;19928;-65
2022/06/24 06:47:05;;;;;;;;;;;20.10;99.90;;;;;;5071366;28;19916;-64
2022/06/24 06:49:31;;;;;;;;;;;20.10;99.90;;;;;;5071694;28;19917;-65
2022/06/24 06:51:59;;;;;;;;;;;20.10;99.90;;;;;;5071247;28;20362;-64
2022/06/24 06:54:24;;;;;;;;;;;20.10;99.90;;;;;;5070647;28;20028;-63
2022/06/24 06:56:50;;;;;;;;;;;20.10;99.90;;;;;;5071402;28;20379;-64
2022/06/24 06:59:15;;;;;;;;;;;20.10;99.90;;;;;;5070193;28;19931;-64
2022/06/24 07:01:41;;;;;;;;;;;20.10;99.90;;;;;;5071005;28;19924;-65
2022/06/24 07:04:06;;;;;;;;;;;20.10;99.90;;;;;;5062238;28;20003;-63
2022/06/24 07:06:32;;;;;;;;;;;20.10;99.90;;;;;;5066638;28;19946;-65
2022/06/24 07:08:57;;;;;;;;;;;20.10;99.90;;;;;;5068755;28;19942;-64
2022/06/24 07:11:23;;;;;;;;;;;20.10;99.90;;;;;;5067482;28;19917;-64
2022/06/24 07:13:48;;;;;;;;;;;20.10;99.90;;;;;;5065410;28;19925;-64
2022/06/24 07:16:14;;;;;;;;;;;20.10;99.90;;;;;;5068274;28;19920;-64
2022/06/24 07:18:39;;;;;;;;;;;20.10;99.90;;;;;;5070921;28;19927;-64
2022/06/24 07:21:05;;;;;;;;;;;20.10;99.90;;;;;;5068859;28;19962;-64
2022/06/24 07:23:30;;;;;;;;;;;20.10;99.90;;;;;;5069528;28;20295;-64
2022/06/24 07:25:56;;;;;;;;;;;20.10;99.90;;;;;;5069798;28;19917;-64
2022/06/24 07:28:22;;;;;;;;;;;20.10;99.90;;;;;;5069760;28;19939;-64
2022/06/24 07:30:47;;;;;;;;;;;20.10;99.90;;;;;;5070750;28;19920;-65
2022/06/24 07:33:13;;;;;;;;;;;20.00;99.90;;;;;;5070567;28;19920;-65
2022/06/24 07:35:38;;;;;;;;;;;20.00;99.90;;;;;;5070577;28;19976;-65
2022/06/24 07:38:04;;;;;;;;;;;20.00;99.90;;;;;;5070007;28;20264;-64
2022/06/24 07:40:29;;;;;;;;;;;20.00;99.90;;;;;;5069798;28;19924;-65
2022/06/24 07:42:55;;;;;;;;;;;20.00;99.90;;;;;;5068479;28;19916;-65
2022/06/24 07:45:20;;;;;;;;;;;20.10;99.90;;;;;;5069998;28;19927;-64
2022/06/24 07:47:46;;;;;;;;;;;20.10;99.90;;;;;;5068814;28;19912;-64
2022/06/24 07:50:11;;;;;;;;;;;20.00;99.90;;;;;;5065614;28;19921;-64
2022/06/24 07:52:37;;;;;;;;;;;20.10;99.90;;;;;;5067842;28;20501;-64
2022/06/24 07:57:47;;;;;;;;;;;20.10;99.90;;;;;;5067036;28;19928;-63
2022/06/24 08:00:12;;;;;;;;;;;20.10;99.90;;;;;;5069709;28;19917;-64
2022/06/24 08:02:38;;;;;;;;;;;20.10;99.90;;;;;;5067678;28;19923;-64
2022/06/24 08:05:04;;;;;;;;;;;20.10;99.90;;;;;;5069205;28;19964;-65
2022/06/24 08:07:29;;;;;;;;;;;20.10;99.90;;;;;;5067149;28;19920;-65
2022/06/24 08:09:55;;;;;;;;;;;20.10;99.90;;;;;;5067933;28;19927;-64
2022/06/24 08:12:20;;;;;;;;;;;20.10;99.90;;;;;;5069661;28;19917;-64
2022/06/24 08:14:46;;;;;;;;;;;20.10;99.90;;;;;;5067525;28;19978;-63
2022/06/24 08:17:12;;;;;;;;;;;20.10;99.90;;;;;;5069194;28;19916;-63
2022/06/24 08:19:37;;;;;;;;;;;20.10;99.90;;;;;;5069157;28;19979;-63
2022/06/24 08:22:03;;;;;;;;;;;20.10;99.90;;;;;;5068637;28;20434;-64
2022/06/24 08:24:28;;;;;;;;;;;20.00;99.90;;;;;;5049874;28;19952;-64
2022/06/24 08:26:54;;;;;;;;;;;20.10;99.90;;;;;;5067847;28;20476;-65
2022/06/24 08:29:19;;;;;;;;;;;20.00;99.90;;;;;;5067672;28;19916;-64
2022/06/24 08:31:45;;;;;;;;;;;20.00;99.90;;;;;;5069037;28;19920;-65
2022/06/24 08:34:10;;;;;;;;;;;20.00;99.90;;;;;;5068894;28;19916;-63
2022/06/24 08:36:36;;;;;;;;;;;20.00;99.90;;;;;;5067103;28;19920;-63
2022/06/24 08:39:03;;;;;;;;;;;20.00;99.90;;;;;;5068199;28;19981;-63
2022/06/24 08:41:28;;;;;;;;;;;19.90;99.90;;;;;;5083479;28;19970;-64
2022/06/24 08:43:55;;;;;;;;;;;19.80;99.90;;;;;;5068072;28;19920;-63
2022/06/24 08:46:21;;;;;;;;;;;19.70;99.90;;;;;;5068046;28;20833;-63
2022/06/24 08:48:48;;;;;;;;;;;19.60;99.90;;;;;;5067841;28;19920;-63
2022/06/24 08:51:13;;;;;;;;;;;19.50;99.90;;;;;;5068558;28;19931;-63
2022/06/24 08:53:39;;;;;;;;;;;19.40;99.90;;;;;;5069109;28;19920;-63
2022/06/24 08:56:05;;;;;;;;;;;19.20;99.90;;;;;;5067992;28;19922;-63
2022/06/24 08:58:31;;;;;;;;;;;19.20;99.90;;;;;;5067565;28;20030;-64
2022/06/24 09:00:56;;;;;;;;;;;19.00;99.90;;;;;;5066960;28;20007;-63
2022/06/24 09:03:22;;;;;;;;;;;18.90;99.90;;;;;;5068850;28;19924;-63
2022/06/24 09:05:48;;;;;;;;;;;18.80;99.90;;;;;;5067988;28;20351;-63
2022/06/24 09:08:15;;;;;;;;;;;18.70;99.90;;;;;;5069057;28;19967;-63
2022/06/24 09:11:06;;;;;;;;;;;18.70;99.90;;;;;;5072882;28;20395;-63
2022/06/24 09:13:31;;;;;;;;;;;18.60;99.90;;;;;;5071446;28;19917;-63
2022/06/24 09:15:56;;;;;;;;;;;18.50;99.90;;;;;;5070930;28;19916;-64
2022/06/24 09:18:22;;;;;;;;;;;18.50;99.90;;;;;;5072434;28;20378;-63
2022/06/24 09:20:49;;;;;;;;;;;18.40;99.90;;;;;;5070784;28;20291;-61
2022/06/24 09:23:14;;;;;;;;;;;18.40;99.90;;;;;;5070235;28;19921;-62
2022/06/24 09:25:50;;;;;;;;;;;18.40;99.90;;;;;;5070915;28;21342;-62
2022/06/24 09:28:24;;;;;;;;;;;18.30;99.90;;;;;;5070964;28;19942;-62
2022/06/24 09:30:50;;;;;;;;;;;18.30;99.90;;;;;;5071850;28;19916;-63
2022/06/24 09:33:20;;;;;;;;;;;18.30;99.90;;;;;;5071173;28;20091;-63
2022/06/24 09:35:45;;;;;;;;;;;18.20;99.90;;;;;;5079576;28;20011;-63
2022/06/24 09:38:11;;;;;;;;;;;18.30;99.90;;;;;;5069621;28;20062;-63
2022/06/24 09:40:38;;;;;;;;;;;18.30;99.90;;;;;;5068984;28;19921;-64
2022/06/24 09:43:05;;;;;;;;;;;18.30;99.90;;;;;;5071407;28;19916;-64
2022/06/24 09:45:46;;;;;;;;;;;18.30;99.90;;;;;;5071731;28;19970;-64
2022/06/24 09:48:32;;;;;;;;;;;18.40;99.90;;;;;;5069040;28;20375;-64
2022/06/24 09:50:59;;;;;;;;;;;18.30;99.90;;;;;;5068429;28;19920;-63
2022/06/24 09:53:25;;;;;;;;;;;18.40;99.90;;;;;;5069006;28;19935;-64
2022/06/24 09:55:51;;;;;;;;;;;18.40;99.90;;;;;;5066526;28;20401;-64
2022/06/24 09:58:17;;;;;;;;;;;18.50;99.90;;;;;;5066251;28;19978;-64
2022/06/24 10:00:43;;;;;;;;;;;18.50;99.90;;;;;;5051062;28;20058;-63
2022/06/24 10:03:11;;;;;;;;;;;18.50;99.90;;;;;;5077933;28;19925;-63
2022/06/24 10:05:38;;;;;;;;;;;18.50;99.90;;;;;;5071026;28;19929;-63
2022/06/24 10:08:05;;;;;;;;;;;18.60;99.90;;;;;;5067691;28;19916;-64
2022/06/24 10:10:31;;;;;;;;;;;18.60;99.90;;;;;;5068670;28;20072;-64
2022/06/24 10:13:00;;;;;;;;;;;18.60;99.90;;;;;;5070469;28;19920;-64
2022/06/24 10:15:25;;;;;;;;;;;18.70;99.90;;;;;;5070557;28;19926;-63
2022/06/24 10:17:51;;;;;;;;;;;18.80;99.90;;;;;;5069343;28;19920;-64
2022/06/24 10:20:17;;;;;;;;;;;18.80;99.90;;;;;;5069211;28;19948;-64
2022/06/24 10:22:44;;;;;;;;;;;18.80;99.90;;;;;;5069220;28;19919;-64
2022/06/24 10:25:10;;;;;;;;;;;18.90;99.90;;;;;;5067761;28;19964;-64
2022/06/24 10:27:54;;;;;;;;;;;19.00;99.90;;;;;;5067263;28;20351;-63
2022/06/24 10:30:39;;;;;;;;;;;19.00;99.90;;;;;;5066679;28;19920;-64
2022/06/24 10:33:14;;;;;;;;;;;19.00;99.90;;;;;;5067069;28;19916;-65
2022/06/24 10:36:00;;;;;;;;;;;19.10;99.90;;;;;;5067611;28;20420;-64
2022/06/24 10:38:30;;;;;;;;;;;19.00;99.90;;;;;;5069056;28;20354;-63
2022/06/24 10:40:56;;;;;;;;;;;19.10;99.90;;;;;;5070694;28;19963;-63
2022/06/24 10:43:33;;;;;;;;;;;19.00;99.90;;;;;;5070352;28;19932;-64
2022/06/24 10:46:10;;;;;;;;;;;19.10;99.90;;;;;;5068962;28;20321;-64
2022/06/24 10:48:47;;;;;;;;;;;19.10;99.90;;;;;;5067554;28;19924;-64
2022/06/24 10:51:13;;;;;;;;;;;19.10;99.90;;;;;;5070722;28;19967;-63
2022/06/24 10:54:06;;;;;;;;;;;19.20;99.90;;;;;;5068440;28;20012;-64
2022/06/24 10:56:38;;;;;;;;;;;19.30;99.90;;;;;;5065464;28;19924;-64
2022/06/24 10:59:03;;;;;;;;;;;19.40;99.90;;;;;;5067980;28;19960;-64
2022/06/24 11:01:29;;;;;;;;;;;19.50;99.90;;;;;;5067482;28;19982;-63
2022/06/24 11:03:55;;;;;;;;;;;19.60;99.90;;;;;;5068877;28;20421;-65
2022/06/24 11:06:21;;;;;;;;;;;19.70;99.90;;;;;;5069819;28;20366;-64
2022/06/24 11:08:46;;;;;;;;;;;19.80;99.90;;;;;;5068414;28;19920;-64
2022/06/24 11:11:24;;;;;;;;;;;19.80;99.90;;;;;;5066812;28;20337;-64
2022/06/24 11:13:50;;;;;;;;;;;19.80;99.90;;;;;;5069238;28;20348;-64
2022/06/24 11:16:16;;;;;;;;;;;19.80;99.90;;;;;;5069051;28;20007;-64
2022/06/24 11:18:42;;;;;;;;;;;19.80;99.90;;;;;;5069832;28;19970;-62
2022/06/24 11:21:08;;;;;;;;;;;19.80;99.90;;;;;;5065554;28;19927;-62
2022/06/24 11:23:35;;;;;;;;;;;19.90;99.90;;;;;;5069566;28;20620;-64
2022/06/24 11:26:03;;;;;;;;;;;19.90;99.90;;;;;;5066786;28;20018;-63
2022/06/24 11:28:33;;;;;;;;;;;20.00;99.90;;;;;;5066982;28;20045;-64
2022/06/24 11:31:17;;;;;;;;;;;20.00;99.90;;;;;;5063542;28;19920;-64
2022/06/24 11:33:43;;;;;;;;;;;20.10;99.90;;;;;;5066718;28;20037;-64
2022/06/24 11:36:09;;;;;;;;;;;20.10;99.90;;;;;;5069501;28;19953;-65
2022/06/24 11:38:47;;;;;;;;;;;20.10;99.90;;;;;;5064020;28;20003;-64
2022/06/24 11:41:19;;;;;;;;;;;20.10;99.90;;;;;;5064280;28;19924;-64
2022/06/24 11:43:48;;;;;;;;;;;20.10;99.90;;;;;;5067434;28;19966;-64
2022/06/24 11:46:15;;;;;;;;;;;20.20;99.90;;;;;;5069708;28;20003;-64
2022/06/24 11:48:40;;;;;;;;;;;20.20;99.90;;;;;;5068943;28;19921;-64
2022/06/24 11:51:15;;;;;;;;;;;20.30;99.90;;;;;;5068853;28;19986;-64
2022/06/24 11:53:43;;;;;;;;;;;20.30;99.90;;;;;;5069492;28;19924;-64
2022/06/24 11:56:08;;;;;;;;;;;20.40;99.90;;;;;;5069686;28;19916;-64
2022/06/24 11:58:35;;;;;;;;;;;20.50;99.90;;;;;;5070066;28;20310;-64
2022/06/24 12:01:01;;;;;;;;;;;20.50;99.90;;;;;;5068813;28;19920;-65
2022/06/24 12:03:26;;;;;;;;;;;20.60;99.90;;;;;;5065623;28;19927;-64
2022/06/24 12:05:52;;;;;;;;;;;20.70;99.90;;;;;;5068812;28;19920;-64
2022/06/24 12:08:18;;;;;;;;;;;20.90;99.90;;;;;;5069228;28;20291;-65
2022/06/24 12:10:49;;;;;;;;;;;21.10;99.90;;;;;;5068716;28;19982;-64
2022/06/24 12:13:23;;;;;;;;;;;21.20;99.90;;;;;;5049838;28;19916;-64
2022/06/24 12:15:48;;;;;;;;;;;21.20;99.90;;;;;;5069045;28;19927;-64
2022/06/24 12:18:15;;;;;;;;;;;21.30;99.90;;;;;;5069951;28;19924;-64
2022/06/24 12:20:41;;;;;;;;;;;21.30;99.90;;;;;;5068722;28;19917;-64
2022/06/24 12:23:16;;;;;;;;;;;21.30;99.90;;;;;;5068199;28;20282;-64
2022/06/24 12:25:42;;;;;;;;;;;21.50;99.90;;;;;;5065407;28;19950;-64
2022/06/24 12:28:26;;;;;;;;;;;21.60;99.90;;;;;;5068079;28;19916;-64
2022/06/24 12:31:05;;;;;;;;;;;21.80;99.90;;;;;;5067198;28;20011;-64
2022/06/24 12:33:32;;;;;;;;;;;22.00;99.90;;;;;;5067928;28;19916;-65
2022/06/24 12:36:02;;;;;;;;;;;22.10;99.90;;;;;;5062109;28;19924;-65
2022/06/24 12:38:27;;;;;;;;;;;22.20;99.90;;;;;;5063447;28;20018;-65
2022/06/24 12:40:53;;;;;;;;;;;22.10;99.90;;;;;;5066398;28;20047;-65
2022/06/24 12:43:18;;;;;;;;;;;22.10;99.90;;;;;;5069974;28;20405;-65
2022/06/24 12:45:44;;;;;;;;;;;22.10;99.90;;;;;;5070531;28;19921;-65
2022/06/24 12:50:58;;;;;;;;;;;22.00;99.90;;;;;;5072038;28;20363;-65
2022/06/24 12:53:24;;;;;;;;;;;22.00;99.90;;;;;;5073241;28;20302;-65
2022/06/24 12:55:49;;;;;;;;;;;21.90;99.90;;;;;;5072462;28;19917;-65
2022/06/24 12:58:15;;;;;;;;;;;22.00;99.90;;;;;;5068006;28;19916;-65
2022/06/24 13:00:40;;;;;;;;;;;21.90;99.90;;;;;;5071113;28;19924;-66
2022/06/24 13:03:06;;;;;;;;;;;21.90;99.90;;;;;;5070353;28;19916;-64
2022/06/24 13:05:31;;;;;;;;;;;21.90;99.90;;;;;;5072194;28;20007;-66
2022/06/24 13:07:57;;;;;;;;;;;21.90;99.90;;;;;;5070965;28;19927;-66
2022/06/24 13:10:23;;;;;;;;;;;21.80;99.90;;;;;;5069719;28;19923;-65
2022/06/24 13:12:48;;;;;;;;;;;21.90;99.90;;;;;;5070174;28;20390;-65
2022/06/24 13:15:14;;;;;;;;;;;22.00;99.90;;;;;;5071134;28;19970;-66
2022/06/24 13:17:40;;;;;;;;;;;22.10;99.90;;;;;;5068154;28;20355;-65
2022/06/24 13:20:08;;;;;;;;;;;22.20;99.90;;;;;;5069650;28;19947;-64
2022/06/24 13:22:33;;;;;;;;;;;22.30;99.90;;;;;;5071223;28;20035;-65
2022/06/24 13:24:59;;;;;;;;;;;22.40;99.90;;;;;;5070853;28;19998;-65
2022/06/24 13:27:24;;;;;;;;;;;22.50;99.90;;;;;;5071072;28;19920;-65
2022/06/24 13:29:50;;;;;;;;;;;22.50;99.90;;;;;;5069444;28;20026;-66
2022/06/24 13:32:15;;;;;;;;;;;22.70;99.90;;;;;;5071201;28;19916;-65
2022/06/24 13:34:41;;;;;;;;;;;22.80;99.90;;;;;;5068765;28;19921;-65
2022/06/24 13:37:06;;;;;;;;;;;22.90;99.90;;;;;;5071941;28;19916;-65
2022/06/24 13:39:32;;;;;;;;;;;23.00;99.90;;;;;;5068577;28;21309;-65
2022/06/24 13:41:57;;;;;;;;;;;23.20;99.90;;;;;;5070855;28;19963;-65
2022/06/24 13:44:23;;;;;;;;;;;23.20;99.90;;;;;;5070338;28;20038;-66
2022/06/24 13:46:50;;;;;;;;;;;23.30;99.90;;;;;;5071791;28;19924;-65
2022/06/24 13:49:15;;;;;;;;;;;23.20;99.90;;;;;;5070140;28;19924;-65
2022/06/24 13:51:41;;;;;;;;;;;23.20;99.90;;;;;;5070181;28;20375;-66
2022/06/24 13:54:07;;;;;;;;;;;23.30;99.90;;;;;;5069847;28;20333;-65
2022/06/24 13:56:32;;;;;;;;;;;23.30;99.90;;;;;;5064745;28;19956;-65
2022/06/24 13:58:59;;;;;;;;;;;23.50;99.90;;;;;;5070521;28;20461;-65
2022/06/24 14:01:24;;;;;;;;;;;23.60;99.90;;;;;;5069808;28;20345;-65
2022/06/24 14:03:50;;;;;;;;;;;23.70;99.90;;;;;;5069971;28;20004;-65
2022/06/24 14:06:17;;;;;;;;;;;23.60;99.90;;;;;;5068792;28;19920;-64
2022/06/24 14:08:43;;;;;;;;;;;23.70;99.90;;;;;;5069136;28;19962;-63
2022/06/24 14:11:08;;;;;;;;;;;23.80;99.90;;;;;;5071666;28;20378;-62
2022/06/24 14:13:34;;;;;;;;;;;23.70;99.90;;;;;;5071511;28;19950;-64
2022/06/24 14:15:59;;;;;;;;;;;23.70;99.90;;;;;;5071492;28;20011;-64
2022/06/24 14:18:25;;;;;;;;;;;23.70;99.90;;;;;;5069481;28;19983;-64
2022/06/24 14:20:50;;;;;;;;;;;23.80;99.90;;;;;;5071047;28;20004;-64
2022/06/24 14:26:00;;;;;;;;;;;23.70;99.90;;;;;;5071637;28;20349;-64
2022/06/24 14:28:26;;;;;;;;;;;23.70;99.90;;;;;;5070038;28;20007;-64